createdAt,value
2022-11-06T00:00:07.003Z,9.80
2022-11-06T00:02:34.841Z,9.90
2022-11-06T00:05:16.391Z,9.90
2022-11-06T00:07:47.399Z,10.00
2022-11-06T00:10:15.364Z,9.90
2022-11-06T00:12:43.061Z,9.90
2022-11-06T00:15:11.243Z,9.90
2022-11-06T00:17:39.081Z,9.90
2022-11-06T00:20:07.473Z,9.90
2022-11-06T00:22:35.305Z,10.00
2022-11-06T00:25:04.390Z,9.90
2022-11-06T00:27:31.983Z,10.00
2022-11-06T00:29:59.592Z,10.00
2022-11-06T00:32:27.179Z,10.00
2022-11-06T00:34:54.722Z,10.00
2022-11-06T00:37:22.295Z,10.00
2022-11-06T00:39:49.939Z,10.10
2022-11-06T00:42:18.861Z,10.10
2022-11-06T00:44:46.445Z,10.10
2022-11-06T00:47:14.257Z,10.10
2022-11-06T00:49:41.808Z,10.20
2022-11-06T00:52:09.391Z,10.20
2022-11-06T00:54:37.008Z,10.10
2022-11-06T00:57:04.734Z,10.10
2022-11-06T00:59:33.642Z,10.10
2022-11-06T01:02:01.621Z,10.10
2022-11-06T01:04:29.277Z,10.10
2022-11-06T01:06:57.677Z,10.10
2022-11-06T01:09:26.236Z,10.10
2022-11-06T01:14:43.977Z,10.00
2022-11-06T01:17:11.982Z,10.10
2022-11-06T01:19:39.708Z,10.10
2022-11-06T01:22:07.328Z,10.10
2022-11-06T01:24:35.024Z,10.20
2022-11-06T01:27:25.513Z,10.10
2022-11-06T01:29:51.612Z,10.20
2022-11-06T01:32:19.231Z,10.20
2022-11-06T01:34:46.894Z,10.20
2022-11-06T01:37:15.044Z,10.20
2022-11-06T01:39:43.052Z,10.20
2022-11-06T01:42:11.400Z,10.20
2022-11-06T01:44:57.508Z,10.10
2022-11-06T01:47:27.270Z,10.10
2022-11-06T01:49:58.231Z,10.10
2022-11-06T01:52:27.030Z,10.20
2022-11-06T01:54:56.803Z,10.20
2022-11-06T01:57:24.660Z,10.20
2022-11-06T01:59:53.667Z,10.20
2022-11-06T02:02:21.584Z,10.20
2022-11-06T02:04:50.920Z,10.10
2022-11-06T02:07:18.896Z,10.20
2022-11-06T02:09:46.825Z,10.20
2022-11-06T02:12:27.421Z,10.20
2022-11-06T02:18:03.074Z,10.20
2022-11-06T02:20:36.352Z,10.20
2022-11-06T02:23:11.570Z,10.20
2022-11-06T02:25:44.821Z,10.40
2022-11-06T02:28:18.400Z,10.10
2022-11-06T02:30:47.727Z,10.20
2022-11-06T02:33:17.956Z,10.20
2022-11-06T02:35:50.601Z,10.20
2022-11-06T02:38:19.870Z,10.40
2022-11-06T02:40:49.803Z,10.40
2022-11-06T02:43:20.379Z,10.40
2022-11-06T02:45:50.640Z,10.40
2022-11-06T02:48:20.983Z,10.10
2022-11-06T02:50:50.848Z,10.20
2022-11-06T02:53:27.282Z,10.30
2022-11-06T02:55:57.281Z,10.20
2022-11-06T02:58:30.011Z,10.20
2022-11-06T03:01:00.462Z,10.20
2022-11-06T03:03:30.251Z,10.30
2022-11-06T03:05:59.922Z,10.20
2022-11-06T03:08:31.586Z,10.50
2022-11-06T03:11:04.804Z,10.50
2022-11-06T03:13:40.753Z,10.50
2022-11-06T03:16:15.093Z,10.50
2022-11-06T03:18:44.247Z,10.20
2022-11-06T03:21:18.214Z,10.50
2022-11-06T03:23:49.204Z,10.50
2022-11-06T03:26:19.144Z,10.20
2022-11-06T03:28:55.278Z,10.40
2022-11-06T03:31:28.479Z,10.20
2022-11-06T03:33:58.382Z,10.40
2022-11-06T03:36:28.009Z,10.20
2022-11-06T03:39:00.479Z,10.20
2022-11-06T03:41:31.965Z,10.20
2022-11-06T03:44:04.667Z,10.20
2022-11-06T03:46:37.534Z,10.20
2022-11-06T03:49:06.852Z,10.00
2022-11-06T03:51:39.654Z,10.30
2022-11-06T03:54:08.937Z,10.30
2022-11-06T03:56:37.966Z,10.50
2022-11-06T03:59:08.317Z,10.30
2022-11-06T04:01:38.100Z,10.50
2022-11-06T04:04:08.027Z,10.30
2022-11-06T04:06:38.914Z,10.30
2022-11-06T04:09:25.337Z,10.30
2022-11-06T04:12:14.107Z,10.30
2022-11-06T04:14:49.742Z,10.40
2022-11-06T04:17:18.502Z,10.60
2022-11-06T04:19:53.684Z,10.60
2022-11-06T04:22:35.849Z,10.40
2022-11-06T04:25:27.550Z,10.40
2022-11-06T04:28:04.426Z,10.40
2022-11-06T04:30:36.633Z,10.30
2022-11-06T04:33:07.393Z,10.30
2022-11-06T04:35:53.875Z,10.50
2022-11-06T04:38:30.015Z,10.30
2022-11-06T04:41:06.797Z,10.30
2022-11-06T04:43:38.354Z,10.30
2022-11-06T04:46:09.595Z,10.20
2022-11-06T04:48:40.589Z,10.40
2022-11-06T04:51:14.347Z,10.60
2022-11-06T04:53:43.205Z,10.30
2022-11-06T04:56:12.633Z,10.30
2022-11-06T04:58:41.994Z,10.30
2022-11-06T05:01:11.353Z,10.20
2022-11-06T05:03:47.641Z,10.30
2022-11-06T05:06:18.144Z,10.40
2022-11-06T05:08:46.225Z,10.30
2022-11-06T05:11:14.264Z,10.30
2022-11-06T05:13:42.059Z,10.60
2022-11-06T05:16:15.964Z,10.50
2022-11-06T05:18:43.688Z,10.30
2022-11-06T05:21:29.078Z,10.30
2022-11-06T05:23:56.712Z,10.30
2022-11-06T05:26:24.502Z,10.30
2022-11-06T05:28:52.406Z,10.20
2022-11-06T05:31:21.742Z,10.30
2022-11-06T05:33:49.626Z,10.50
2022-11-06T05:36:17.687Z,10.30
2022-11-06T05:38:45.716Z,10.20
2022-11-06T05:41:13.531Z,10.60
2022-11-06T05:43:47.883Z,10.50
2022-11-06T05:49:05.145Z,10.40
2022-11-06T05:51:35.938Z,10.40
2022-11-06T05:54:04.454Z,10.20
2022-11-06T05:56:35.318Z,10.10
2022-11-06T05:59:03.030Z,10.20
2022-11-06T06:01:30.658Z,10.20
2022-11-06T06:03:58.399Z,10.20
2022-11-06T06:06:27.437Z,10.20
2022-11-06T06:08:55.005Z,10.30
2022-11-06T06:11:23.694Z,10.30
2022-11-06T06:13:51.254Z,10.30
2022-11-06T06:16:18.838Z,10.20
2022-11-06T06:18:46.505Z,10.10
2022-11-06T06:21:14.209Z,10.20
2022-11-06T06:23:43.293Z,10.20
2022-11-06T06:26:11.241Z,10.10
2022-11-06T06:28:38.995Z,10.10
2022-11-06T06:31:07.013Z,10.20
2022-11-06T06:33:34.708Z,10.20
2022-11-06T06:36:03.768Z,10.20
2022-11-06T06:38:31.457Z,10.20
2022-11-06T06:41:03.277Z,10.10
2022-11-06T06:43:31.173Z,10.10
2022-11-06T06:45:59.181Z,10.10
2022-11-06T06:48:26.935Z,10.20
2022-11-06T06:50:57.177Z,10.20
2022-11-06T06:53:25.015Z,10.20
2022-11-06T06:55:52.564Z,10.30
2022-11-06T06:58:21.719Z,10.30
2022-11-06T07:00:49.539Z,10.20
2022-11-06T07:03:17.119Z,10.30
2022-11-06T07:05:44.787Z,10.30
2022-11-06T07:08:12.776Z,10.40
2022-11-06T07:10:40.540Z,10.30
2022-11-06T07:13:08.278Z,10.40
2022-11-06T07:15:37.187Z,10.30
2022-11-06T07:18:05.595Z,10.40
2022-11-06T07:20:33.603Z,10.40
2022-11-06T07:23:05.639Z,10.40
2022-11-06T07:25:33.204Z,10.40
2022-11-06T07:28:02.821Z,10.50
2022-11-06T07:30:30.695Z,10.40
2022-11-06T07:33:00.624Z,10.50
2022-11-06T07:35:28.587Z,10.60
2022-11-06T07:37:56.210Z,10.50
2022-11-06T07:40:23.789Z,10.50
2022-11-06T07:42:51.462Z,10.50
2022-11-06T07:45:18.990Z,10.60
2022-11-06T07:47:46.548Z,10.60
2022-11-06T07:50:15.466Z,10.70
2022-11-06T07:52:43.013Z,10.70
2022-11-06T07:55:10.648Z,10.70
2022-11-06T07:57:38.441Z,10.80
2022-11-06T08:00:06.991Z,10.80
2022-11-06T08:02:34.625Z,10.80
2022-11-06T08:05:02.326Z,10.80
2022-11-06T08:07:31.313Z,10.90
2022-11-06T08:09:59.021Z,10.90
2022-11-06T08:12:26.728Z,10.90
2022-11-06T08:14:54.332Z,10.90
2022-11-06T08:17:22.299Z,10.90
2022-11-06T08:19:49.832Z,10.90
2022-11-06T08:22:17.473Z,10.90
2022-11-06T08:24:46.514Z,11.00
2022-11-06T08:27:14.138Z,11.00
2022-11-06T08:29:41.984Z,11.00
2022-11-06T08:32:09.673Z,11.20
2022-11-06T08:34:37.274Z,11.30
2022-11-06T08:37:05.031Z,11.40
2022-11-06T08:39:32.807Z,11.40
2022-11-06T08:42:01.827Z,11.40
2022-11-06T08:44:29.387Z,11.50
2022-11-06T08:46:57.024Z,11.60
2022-11-06T08:49:24.660Z,11.60
2022-11-06T08:51:53.799Z,11.70
2022-11-06T08:54:21.599Z,12.00
2022-11-06T08:56:49.727Z,12.20
2022-11-06T08:59:18.650Z,12.40
2022-11-06T09:01:46.870Z,12.60
2022-11-06T09:04:14.541Z,12.70
2022-11-06T09:06:42.287Z,12.80
2022-11-06T09:09:11.000Z,12.60
2022-11-06T09:11:38.588Z,12.40
2022-11-06T09:14:06.250Z,12.30
2022-11-06T09:16:35.144Z,12.50
2022-11-06T09:19:02.850Z,12.50
2022-11-06T09:21:30.435Z,12.50
2022-11-06T09:23:58.332Z,12.40
2022-11-06T09:26:25.879Z,12.50
2022-11-06T09:28:53.461Z,12.50
2022-11-06T09:31:21.177Z,12.40
2022-11-06T09:33:50.970Z,12.20
2022-11-06T09:36:18.607Z,12.30
2022-11-06T09:38:46.187Z,12.30
2022-11-06T09:41:18.131Z,12.40
2022-11-06T09:44:05.321Z,12.40
2022-11-06T09:46:34.883Z,12.40
2022-11-06T09:49:11.846Z,12.40
2022-11-06T09:51:40.941Z,12.40
2022-11-06T09:54:14.427Z,12.50
2022-11-06T09:56:43.086Z,12.60
2022-11-06T09:59:13.231Z,12.60
2022-11-06T10:01:43.119Z,12.70
2022-11-06T10:04:17.853Z,12.60
2022-11-06T10:06:45.466Z,12.70
2022-11-06T10:09:13.117Z,12.70
2022-11-06T10:11:48.399Z,12.70
2022-11-06T10:14:24.139Z,12.70
2022-11-06T10:16:55.432Z,12.70
2022-11-06T10:19:28.953Z,12.80
2022-11-06T10:22:00.724Z,12.70
2022-11-06T10:24:33.305Z,12.70
2022-11-06T10:27:02.587Z,12.70
2022-11-06T10:29:41.323Z,12.80
2022-11-06T10:32:28.027Z,12.80
2022-11-06T10:35:00.292Z,12.80
2022-11-06T10:37:29.701Z,12.60
2022-11-06T10:39:57.908Z,12.60
2022-11-06T10:42:35.189Z,12.50
2022-11-06T10:45:06.863Z,12.50
2022-11-06T10:47:35.393Z,12.50
2022-11-06T10:50:05.659Z,12.50
2022-11-06T10:52:42.409Z,12.60
2022-11-06T10:55:21.753Z,12.60
2022-11-06T10:57:53.481Z,12.60
2022-11-06T11:00:21.060Z,12.70
2022-11-06T11:02:50.320Z,12.80
2022-11-06T11:05:21.018Z,12.90
2022-11-06T11:07:49.725Z,13.00
2022-11-06T11:10:27.773Z,13.10
2022-11-06T11:12:56.490Z,13.30
2022-11-06T11:15:24.690Z,13.40
2022-11-06T11:18:08.728Z,13.40
2022-11-06T11:20:38.551Z,13.40
2022-11-06T11:23:07.428Z,13.20
2022-11-06T11:25:35.364Z,13.20
2022-11-06T11:28:05.120Z,13.20
2022-11-06T11:30:32.823Z,13.30
2022-11-06T11:33:00.396Z,13.30
2022-11-06T11:35:29.402Z,13.30
2022-11-06T11:38:08.944Z,13.30
2022-11-06T11:40:37.420Z,13.30
2022-11-06T11:43:18.842Z,13.40
2022-11-06T11:46:02.007Z,13.40
2022-11-06T11:48:41.548Z,13.30
2022-11-06T11:51:13.663Z,13.50
2022-11-06T11:53:42.869Z,13.50
2022-11-06T11:56:14.638Z,13.40
2022-11-06T11:58:42.227Z,13.30
2022-11-06T12:01:09.771Z,13.30
2022-11-06T12:03:40.718Z,13.30
2022-11-06T12:06:10.368Z,13.40
2022-11-06T12:08:39.288Z,13.40
2022-11-06T12:11:08.654Z,13.50
2022-11-06T12:13:36.233Z,13.60
2022-11-06T12:16:06.144Z,13.80
2022-11-06T12:18:34.992Z,14.00
2022-11-06T12:21:05.037Z,14.10
2022-11-06T12:23:35.339Z,14.10
2022-11-06T12:26:06.817Z,14.20
2022-11-06T12:28:37.600Z,14.10
2022-11-06T12:31:08.073Z,14.20
2022-11-06T12:34:04.977Z,14.20
2022-11-06T12:36:27.290Z,14.10
2022-11-06T12:38:56.796Z,14.10
2022-11-06T12:41:27.032Z,14.00
2022-11-06T12:43:56.958Z,14.10
2022-11-06T12:46:30.264Z,14.10
2022-11-06T12:49:18.951Z,14.00
2022-11-06T12:51:52.087Z,14.00
2022-11-06T12:54:25.635Z,14.10
2022-11-06T12:56:57.474Z,14.20
2022-11-06T12:59:33.995Z,14.30
2022-11-06T13:02:05.396Z,14.30
2022-11-06T13:04:41.373Z,14.30
2022-11-06T13:07:20.212Z,14.30
2022-11-06T13:09:52.679Z,14.40
2022-11-06T13:12:23.523Z,14.40
2022-11-06T13:14:58.129Z,14.40
2022-11-06T13:17:29.426Z,14.40
2022-11-06T13:19:59.922Z,14.30
2022-11-06T13:22:30.699Z,14.20
2022-11-06T13:25:01.287Z,14.40
2022-11-06T13:27:31.998Z,14.40
2022-11-06T13:30:03.024Z,14.30
2022-11-06T13:32:32.145Z,14.30
2022-11-06T13:35:00.625Z,14.20
2022-11-06T13:37:35.808Z,14.30
2022-11-06T13:40:06.685Z,14.40
2022-11-06T13:42:37.470Z,14.50
2022-11-06T13:45:07.743Z,14.40
2022-11-06T13:47:37.595Z,14.20
2022-11-06T13:50:06.975Z,14.30
2022-11-06T13:52:39.065Z,14.30
2022-11-06T13:55:14.927Z,14.30
2022-11-06T13:57:55.235Z,14.20
2022-11-06T14:00:24.663Z,14.20
2022-11-06T14:03:10.430Z,14.00
2022-11-06T14:05:54.469Z,13.80
2022-11-06T14:08:24.842Z,13.70
2022-11-06T14:10:54.677Z,13.60
2022-11-06T14:13:29.547Z,13.50
2022-11-06T14:16:06.457Z,13.40
2022-11-06T14:18:34.694Z,13.30
2022-11-06T14:21:21.006Z,13.30
2022-11-06T14:23:52.962Z,13.20
2022-11-06T14:26:35.425Z,13.10
2022-11-06T14:29:17.978Z,13.00
2022-11-06T14:32:02.631Z,13.00
2022-11-06T14:34:31.118Z,13.00
2022-11-06T14:36:59.082Z,12.90
2022-11-06T14:39:50.459Z,13.10
2022-11-06T14:42:22.935Z,12.90
2022-11-06T14:44:55.723Z,12.80
2022-11-06T14:47:27.284Z,12.80
2022-11-06T14:49:55.983Z,12.80
2022-11-06T14:52:24.807Z,12.70
2022-11-06T14:54:54.496Z,12.70
2022-11-06T14:57:35.200Z,12.70
2022-11-06T15:00:03.377Z,12.60
2022-11-06T15:02:34.375Z,12.70
2022-11-06T15:05:03.111Z,12.60
2022-11-06T15:08:03.095Z,12.60
2022-11-06T15:10:41.462Z,12.50
2022-11-06T15:13:11.602Z,12.50
2022-11-06T15:15:41.865Z,12.40
2022-11-06T15:18:13.293Z,12.40
2022-11-06T15:20:41.336Z,12.40
2022-11-06T15:23:14.374Z,12.40
2022-11-06T15:25:48.359Z,12.40
2022-11-06T15:28:18.700Z,12.40
2022-11-06T15:30:48.179Z,12.40
2022-11-06T15:33:19.776Z,12.30
2022-11-06T15:35:49.516Z,12.30
2022-11-06T15:38:19.756Z,12.30
2022-11-06T15:40:48.262Z,12.30
2022-11-06T15:43:23.072Z,12.20
2022-11-06T15:46:07.053Z,12.20
2022-11-06T15:48:36.530Z,12.10
2022-11-06T15:51:05.608Z,12.10
2022-11-06T15:53:39.735Z,12.00
2022-11-06T15:56:09.307Z,12.00
2022-11-06T15:58:37.461Z,12.00
2022-11-06T16:01:06.070Z,11.90
2022-11-06T16:03:43.811Z,12.00
2022-11-06T16:06:12.735Z,12.00
2022-11-06T16:08:41.666Z,12.00
2022-11-06T16:11:13.575Z,12.00
2022-11-06T16:13:41.607Z,12.00
2022-11-06T16:16:29.639Z,12.00
2022-11-06T16:18:57.472Z,11.90
2022-11-06T16:21:28.853Z,11.80
2022-11-06T16:23:58.169Z,11.80
2022-11-06T16:26:27.081Z,11.90
2022-11-06T16:28:56.054Z,11.80
2022-11-06T16:31:25.156Z,11.90
2022-11-06T16:33:56.292Z,11.90
2022-11-06T16:36:24.666Z,11.80
2022-11-06T16:38:54.105Z,11.80
2022-11-06T16:41:39.266Z,11.80
2022-11-06T16:44:29.308Z,11.80
2022-11-06T16:47:18.085Z,11.80
2022-11-06T16:49:52.617Z,11.70
2022-11-06T16:52:23.077Z,11.70
2022-11-06T16:54:52.713Z,11.80
2022-11-06T16:57:21.835Z,12.10
2022-11-06T16:59:55.346Z,12.10
2022-11-06T17:02:25.204Z,12.20
2022-11-06T17:04:52.831Z,12.50
2022-11-06T17:07:21.490Z,12.10
2022-11-06T17:09:49.195Z,12.20
2022-11-06T17:12:18.190Z,12.10
2022-11-06T17:14:46.851Z,12.00
2022-11-06T17:17:25.474Z,11.70
2022-11-06T17:19:53.272Z,11.70
2022-11-06T17:22:20.860Z,11.80
2022-11-06T17:24:48.421Z,11.70
2022-11-06T17:27:16.136Z,11.70
2022-11-06T17:29:45.203Z,11.70
2022-11-06T17:32:12.943Z,11.70
2022-11-06T17:34:40.494Z,11.60
2022-11-06T17:37:11.068Z,11.50
2022-11-06T17:39:38.761Z,11.50
2022-11-06T17:42:06.594Z,11.50
2022-11-06T17:44:34.133Z,11.50
2022-11-06T17:47:03.026Z,11.50
2022-11-06T17:49:30.653Z,11.40
2022-11-06T17:52:01.272Z,11.50
2022-11-06T17:54:31.895Z,11.50
2022-11-06T17:57:00.127Z,11.50
2022-11-06T17:59:27.709Z,11.50
2022-11-06T18:01:58.543Z,11.50
2022-11-06T18:04:30.502Z,11.30
2022-11-06T18:06:58.342Z,11.30
2022-11-06T18:09:26.175Z,11.30
2022-11-06T18:11:54.417Z,11.30
2022-11-06T18:14:23.284Z,11.30
2022-11-06T18:16:51.254Z,11.30
2022-11-06T18:19:20.699Z,11.30
2022-11-06T18:21:49.821Z,11.30
2022-11-06T18:24:17.626Z,11.20
2022-11-06T18:26:45.238Z,11.20
2022-11-06T18:29:13.469Z,11.20
2022-11-06T18:31:41.382Z,11.30
2022-11-06T18:34:16.720Z,11.20
2022-11-06T18:36:47.383Z,11.20
2022-11-06T18:39:16.535Z,11.20
2022-11-06T18:41:44.177Z,11.20
2022-11-06T18:44:11.837Z,11.10
2022-11-06T18:46:39.367Z,11.20
2022-11-06T18:49:07.254Z,11.20
2022-11-06T18:51:36.349Z,11.20
2022-11-06T18:54:06.764Z,11.20
2022-11-06T18:56:35.919Z,11.10
2022-11-06T18:59:04.095Z,11.20
2022-11-06T19:01:31.864Z,11.10
2022-11-06T19:03:59.643Z,11.10
2022-11-06T19:06:27.323Z,11.10
2022-11-06T19:08:54.922Z,11.10
2022-11-06T19:11:22.861Z,11.10
2022-11-06T19:13:54.991Z,11.10
2022-11-06T19:16:22.631Z,11.10
2022-11-06T19:21:29.703Z,11.20
2022-11-06T19:24:05.406Z,11.20
2022-11-06T19:26:35.212Z,11.30
2022-11-06T19:29:04.616Z,11.30
2022-11-06T19:31:33.201Z,11.20
2022-11-06T19:34:01.381Z,11.20
2022-11-06T19:36:29.528Z,11.20
2022-11-06T19:38:58.317Z,11.20
2022-11-06T19:41:26.604Z,11.30
2022-11-06T19:43:54.437Z,11.30
2022-11-06T19:46:28.291Z,11.30
2022-11-06T19:48:57.296Z,11.20
2022-11-06T19:51:25.816Z,11.20
2022-11-06T19:53:53.875Z,11.20
2022-11-06T19:56:21.945Z,11.30
2022-11-06T19:58:50.821Z,11.30
2022-11-06T20:01:19.346Z,11.20
2022-11-06T20:03:48.561Z,11.30
2022-11-06T20:06:17.358Z,11.30
2022-11-06T20:08:47.729Z,11.30
2022-11-06T20:11:15.873Z,11.30
2022-11-06T20:13:44.242Z,11.30
2022-11-06T20:16:12.948Z,11.30
2022-11-06T20:18:40.820Z,11.30
2022-11-06T20:21:10.693Z,11.30
2022-11-06T20:23:38.679Z,11.30
2022-11-06T20:26:06.462Z,11.30
2022-11-06T20:28:34.415Z,11.30
2022-11-06T20:31:05.191Z,11.30
2022-11-06T20:33:33.088Z,11.30
2022-11-06T20:36:08.824Z,11.30
2022-11-06T20:38:38.619Z,11.30
2022-11-06T20:41:06.339Z,11.40
2022-11-06T20:43:34.930Z,11.30
2022-11-06T20:46:03.404Z,11.40
2022-11-06T20:48:31.304Z,11.40
2022-11-06T20:51:00.378Z,11.30
2022-11-06T20:53:28.781Z,11.30
2022-11-06T20:55:59.578Z,11.40
2022-11-06T20:58:28.267Z,11.30
2022-11-06T21:01:01.547Z,11.20
2022-11-06T21:03:29.381Z,11.20
2022-11-06T21:05:57.691Z,11.10
2022-11-06T21:08:25.965Z,11.00
2022-11-06T21:10:54.296Z,10.90
2022-11-06T21:13:23.246Z,10.80
2022-11-06T21:15:56.889Z,10.80
2022-11-06T21:18:24.869Z,10.80
2022-11-06T21:20:52.610Z,10.60
2022-11-06T21:23:20.875Z,10.60
2022-11-06T21:25:48.898Z,10.50
2022-11-06T21:28:16.885Z,10.40
2022-11-06T21:30:50.770Z,10.40
2022-11-06T21:33:18.495Z,10.30
2022-11-06T21:35:46.685Z,10.30
2022-11-06T21:38:14.645Z,10.20
2022-11-06T21:40:42.483Z,10.20
2022-11-06T21:43:10.508Z,10.20
2022-11-06T21:45:38.546Z,10.20
2022-11-06T21:48:14.879Z,10.20
2022-11-06T21:50:53.538Z,10.20
2022-11-06T21:53:38.739Z,10.20
2022-11-06T21:56:07.128Z,10.20
2022-11-06T21:58:35.123Z,10.20
2022-11-06T22:01:03.693Z,10.20
2022-11-06T22:03:33.817Z,10.20
2022-11-06T22:06:05.521Z,10.20
2022-11-06T22:08:35.752Z,10.00
2022-11-06T22:11:10.608Z,10.00
2022-11-06T22:13:38.471Z,10.00
2022-11-06T22:16:06.577Z,10.00
2022-11-06T22:18:35.834Z,10.00
2022-11-06T22:21:07.013Z,10.00
2022-11-06T22:23:34.757Z,9.90
2022-11-06T22:26:03.937Z,10.00
2022-11-06T22:28:31.770Z,10.00
2022-11-06T22:31:00.330Z,10.00
2022-11-06T22:33:28.570Z,10.00
2022-11-06T22:36:03.084Z,10.00
2022-11-06T22:38:31.062Z,10.00
2022-11-06T22:40:59.422Z,10.00
2022-11-06T22:43:27.863Z,10.00
2022-11-06T22:45:59.091Z,9.90
2022-11-06T22:48:27.293Z,10.10
2022-11-06T22:50:55.203Z,10.10
2022-11-06T22:53:24.416Z,10.00
2022-11-06T22:55:55.924Z,10.00
2022-11-06T22:58:23.948Z,10.00
2022-11-06T23:00:52.170Z,10.00
2022-11-06T23:03:20.280Z,10.10
2022-11-06T23:05:48.065Z,10.00
2022-11-06T23:08:16.269Z,10.10
2022-11-06T23:10:45.248Z,10.10
2022-11-06T23:13:12.994Z,10.10
2022-11-06T23:15:40.962Z,10.10
2022-11-06T23:18:08.612Z,10.20
2022-11-06T23:20:36.595Z,10.20
2022-11-06T23:23:04.775Z,10.20
2022-11-06T23:25:32.744Z,10.10
2022-11-06T23:28:02.433Z,10.20
2022-11-06T23:30:30.929Z,10.20
2022-11-06T23:32:58.675Z,10.20
2022-11-06T23:35:32.200Z,10.10
2022-11-06T23:38:00.502Z,10.20
2022-11-06T23:40:28.403Z,10.20
2022-11-06T23:42:57.547Z,10.20
2022-11-06T23:45:44.252Z,10.30
2022-11-06T23:48:13.066Z,10.30
2022-11-06T23:50:40.697Z,10.30
2022-11-06T23:53:08.331Z,10.30
2022-11-06T23:55:35.999Z,10.30
2022-11-06T23:58:03.601Z,10.30
